sensor_id;sensor_type;location;lat;lon;timestamp;temperature;humidity
6948;DHT22;3513;47.664;9.162;2024-03-25T00:01:19;3.60;99.90
6948;DHT22;3513;47.664;9.162;2024-03-25T00:03:44;3.80;99.90
6948;DHT22;3513;47.664;9.162;2024-03-25T00:06:10;3.70;99.90
6948;DHT22;3513;47.664;9.162;2024-03-25T00:08:36;3.70;99.90
6948;DHT22;3513;47.664;9.162;2024-03-25T00:11:02;3.70;99.90
6948;DHT22;3513;47.664;9.162;2024-03-25T00:13:27;3.70;99.90
6948;DHT22;3513;47.664;9.162;2024-03-25T00:15:53;3.70;99.90
6948;DHT22;3513;47.664;9.162;2024-03-25T00:18:18;3.70;99.90
6948;DHT22;3513;47.664;9.162;2024-03-25T00:20:44;3.70;99.90
6948;DHT22;3513;47.664;9.162;2024-03-25T00:23:09;3.60;99.90
6948;DHT22;3513;47.664;9.162;2024-03-25T00:25:37;3.60;99.90
6948;DHT22;3513;47.664;9.162;2024-03-25T00:28:02;3.60;99.90
6948;DHT22;3513;47.664;9.162;2024-03-25T00:30:28;3.60;99.90
6948;DHT22;3513;47.664;9.162;2024-03-25T00:32:55;3.70;99.90
6948;DHT22;3513;47.664;9.162;2024-03-25T00:35:20;3.90;99.90
6948;DHT22;3513;47.664;9.162;2024-03-25T00:37:46;3.80;99.90
6948;DHT22;3513;47.664;9.162;2024-03-25T00:40:12;3.80;99.90
6948;DHT22;3513;47.664;9.162;2024-03-25T00:42:37;3.80;99.90
6948;DHT22;3513;47.664;9.162;2024-03-25T00:45:03;3.70;99.90
6948;DHT22;3513;47.664;9.162;2024-03-25T00:47:31;3.80;99.90
6948;DHT22;3513;47.664;9.162;2024-03-25T00:49:57;3.70;99.90
6948;DHT22;3513;47.664;9.162;2024-03-25T00:52:22;3.60;99.90
6948;DHT22;3513;47.664;9.162;2024-03-25T00:54:48;3.60;99.90
6948;DHT22;3513;47.664;9.162;2024-03-25T00:57:14;3.60;99.90
6948;DHT22;3513;47.664;9.162;2024-03-25T00:59:39;3.60;99.90
6948;DHT22;3513;47.664;9.162;2024-03-25T01:02:05;3.50;99.90
6948;DHT22;3513;47.664;9.162;2024-03-25T01:04:31;3.60;99.90
6948;DHT22;3513;47.664;9.162;2024-03-25T01:06:56;3.60;99.90
6948;DHT22;3513;47.664;9.162;2024-03-25T01:09:22;3.70;99.90
6948;DHT22;3513;47.664;9.162;2024-03-25T01:11:48;3.70;99.90
6948;DHT22;3513;47.664;9.162;2024-03-25T01:14:13;3.80;99.90
6948;DHT22;3513;47.664;9.162;2024-03-25T01:16:39;3.90;99.90
6948;DHT22;3513;47.664;9.162;2024-03-25T01:19:04;3.80;99.90
6948;DHT22;3513;47.664;9.162;2024-03-25T01:21:30;3.90;99.90
6948;DHT22;3513;47.664;9.162;2024-03-25T01:23:56;3.90;99.90
6948;DHT22;3513;47.664;9.162;2024-03-25T01:26:21;4.00;99.90
6948;DHT22;3513;47.664;9.162;2024-03-25T01:28:47;4.00;99.90
6948;DHT22;3513;47.664;9.162;2024-03-25T01:31:13;4.00;99.90
6948;DHT22;3513;47.664;9.162;2024-03-25T01:33:39;4.00;99.90
6948;DHT22;3513;47.664;9.162;2024-03-25T01:36:05;3.90;99.90
6948;DHT22;3513;47.664;9.162;2024-03-25T01:38:31;3.90;99.90
6948;DHT22;3513;47.664;9.162;2024-03-25T01:41:08;3.80;99.90
6948;DHT22;3513;47.664;9.162;2024-03-25T01:43:34;3.80;99.90
6948;DHT22;3513;47.664;9.162;2024-03-25T01:46:00;3.80;99.90
6948;DHT22;3513;47.664;9.162;2024-03-25T01:48:25;3.90;99.90
6948;DHT22;3513;47.664;9.162;2024-03-25T01:50:51;3.90;99.90
6948;DHT22;3513;47.664;9.162;2024-03-25T01:53:17;3.80;99.90
6948;DHT22;3513;47.664;9.162;2024-03-25T01:55:43;4.00;99.90
6948;DHT22;3513;47.664;9.162;2024-03-25T01:58:09;3.80;99.90
6948;DHT22;3513;47.664;9.162;2024-03-25T02:00:35;3.70;99.90
6948;DHT22;3513;47.664;9.162;2024-03-25T02:03:00;3.70;99.90
6948;DHT22;3513;47.664;9.162;2024-03-25T02:05:26;3.60;99.90
6948;DHT22;3513;47.664;9.162;2024-03-25T02:07:52;3.50;99.90
6948;DHT22;3513;47.664;9.162;2024-03-25T02:10:18;3.80;99.90
6948;DHT22;3513;47.664;9.162;2024-03-25T02:12:45;3.70;99.90
6948;DHT22;3513;47.664;9.162;2024-03-25T02:15:12;3.70;99.90
6948;DHT22;3513;47.664;9.162;2024-03-25T02:17:38;3.70;99.90
6948;DHT22;3513;47.664;9.162;2024-03-25T02:20:05;3.50;99.90
6948;DHT22;3513;47.664;9.162;2024-03-25T02:22:34;3.40;99.90
6948;DHT22;3513;47.664;9.162;2024-03-25T02:25:07;3.40;99.90
6948;DHT22;3513;47.664;9.162;2024-03-25T02:27:37;3.40;99.90
6948;DHT22;3513;47.664;9.162;2024-03-25T02:30:08;3.50;99.90
6948;DHT22;3513;47.664;9.162;2024-03-25T02:32:34;3.80;99.90
6948;DHT22;3513;47.664;9.162;2024-03-25T02:35:02;3.80;99.90
6948;DHT22;3513;47.664;9.162;2024-03-25T02:37:29;3.80;99.90
6948;DHT22;3513;47.664;9.162;2024-03-25T02:39:58;3.80;99.90
6948;DHT22;3513;47.664;9.162;2024-03-25T02:42:28;3.70;99.90
6948;DHT22;3513;47.664;9.162;2024-03-25T02:44:55;3.70;99.90
6948;DHT22;3513;47.664;9.162;2024-03-25T02:47:21;3.60;99.90
6948;DHT22;3513;47.664;9.162;2024-03-25T02:49:46;3.70;99.90
6948;DHT22;3513;47.664;9.162;2024-03-25T02:52:12;3.60;99.90
6948;DHT22;3513;47.664;9.162;2024-03-25T02:54:37;3.70;99.90
6948;DHT22;3513;47.664;9.162;2024-03-25T02:57:03;3.70;99.90
6948;DHT22;3513;47.664;9.162;2024-03-25T02:59:29;3.60;99.90
6948;DHT22;3513;47.664;9.162;2024-03-25T03:01:54;3.60;99.90
6948;DHT22;3513;47.664;9.162;2024-03-25T03:04:20;3.70;99.90
6948;DHT22;3513;47.664;9.162;2024-03-25T03:06:45;3.70;99.90
6948;DHT22;3513;47.664;9.162;2024-03-25T03:09:11;3.70;99.90
6948;DHT22;3513;47.664;9.162;2024-03-25T03:11:36;3.70;99.90
6948;DHT22;3513;47.664;9.162;2024-03-25T03:14:02;3.80;99.90
6948;DHT22;3513;47.664;9.162;2024-03-25T03:16:28;3.70;99.90
6948;DHT22;3513;47.664;9.162;2024-03-25T03:18:54;3.60;99.90
6948;DHT22;3513;47.664;9.162;2024-03-25T03:21:20;3.50;99.90
6948;DHT22;3513;47.664;9.162;2024-03-25T03:23:46;4.10;99.90
6948;DHT22;3513;47.664;9.162;2024-03-25T03:26:11;3.40;99.90
6948;DHT22;3513;47.664;9.162;2024-03-25T03:28:38;3.30;99.90
6948;DHT22;3513;47.664;9.162;2024-03-25T03:31:03;3.20;99.90
6948;DHT22;3513;47.664;9.162;2024-03-25T03:33:29;3.20;99.90
6948;DHT22;3513;47.664;9.162;2024-03-25T03:35:54;3.10;99.90
6948;DHT22;3513;47.664;9.162;2024-03-25T03:38:21;3.00;99.90
6948;DHT22;3513;47.664;9.162;2024-03-25T03:43:22;3.10;99.90
6948;DHT22;3513;47.664;9.162;2024-03-25T03:45:48;3.20;99.90
6948;DHT22;3513;47.664;9.162;2024-03-25T03:48:13;3.00;99.90
6948;DHT22;3513;47.664;9.162;2024-03-25T03:50:39;3.10;99.90
6948;DHT22;3513;47.664;9.162;2024-03-25T03:53:04;3.20;99.90
6948;DHT22;3513;47.664;9.162;2024-03-25T03:55:30;3.30;99.90
6948;DHT22;3513;47.664;9.162;2024-03-25T03:57:55;3.40;99.90
6948;DHT22;3513;47.664;9.162;2024-03-25T04:00:21;3.40;99.90
6948;DHT22;3513;47.664;9.162;2024-03-25T04:02:47;3.40;99.90
6948;DHT22;3513;47.664;9.162;2024-03-25T04:05:12;3.50;99.90
6948;DHT22;3513;47.664;9.162;2024-03-25T04:07:38;3.60;99.90
6948;DHT22;3513;47.664;9.162;2024-03-25T04:10:04;3.50;99.90
6948;DHT22;3513;47.664;9.162;2024-03-25T04:12:30;3.40;99.90
6948;DHT22;3513;47.664;9.162;2024-03-25T04:14:55;3.40;99.90
6948;DHT22;3513;47.664;9.162;2024-03-25T04:17:21;3.40;99.90
6948;DHT22;3513;47.664;9.162;2024-03-25T04:19:49;3.50;99.90
6948;DHT22;3513;47.664;9.162;2024-03-25T04:22:14;3.50;99.90
6948;DHT22;3513;47.664;9.162;2024-03-25T04:24:40;3.40;99.90
6948;DHT22;3513;47.664;9.162;2024-03-25T04:27:05;3.30;99.90
6948;DHT22;3513;47.664;9.162;2024-03-25T04:29:31;3.30;99.90
6948;DHT22;3513;47.664;9.162;2024-03-25T04:31:56;3.40;99.90
6948;DHT22;3513;47.664;9.162;2024-03-25T04:34:22;3.30;99.90
6948;DHT22;3513;47.664;9.162;2024-03-25T04:36:48;3.50;99.90
6948;DHT22;3513;47.664;9.162;2024-03-25T04:39:14;3.50;99.90
6948;DHT22;3513;47.664;9.162;2024-03-25T04:41:40;3.50;99.90
6948;DHT22;3513;47.664;9.162;2024-03-25T04:44:06;3.40;99.90
6948;DHT22;3513;47.664;9.162;2024-03-25T04:46:31;3.40;99.90
6948;DHT22;3513;47.664;9.162;2024-03-25T04:48:57;3.40;99.90
6948;DHT22;3513;47.664;9.162;2024-03-25T04:51:23;3.20;99.90
6948;DHT22;3513;47.664;9.162;2024-03-25T04:53:48;3.20;99.90
6948;DHT22;3513;47.664;9.162;2024-03-25T04:56:14;3.20;99.90
6948;DHT22;3513;47.664;9.162;2024-03-25T04:58:39;3.20;99.90
6948;DHT22;3513;47.664;9.162;2024-03-25T05:01:05;3.10;99.90
6948;DHT22;3513;47.664;9.162;2024-03-25T05:03:30;3.10;99.90
6948;DHT22;3513;47.664;9.162;2024-03-25T05:05:56;2.90;99.90
6948;DHT22;3513;47.664;9.162;2024-03-25T05:08:22;3.00;99.90
6948;DHT22;3513;47.664;9.162;2024-03-25T05:10:47;2.90;99.90
6948;DHT22;3513;47.664;9.162;2024-03-25T05:13:13;3.00;99.90
6948;DHT22;3513;47.664;9.162;2024-03-25T05:15:38;3.00;99.90
6948;DHT22;3513;47.664;9.162;2024-03-25T05:18:04;3.10;99.90
6948;DHT22;3513;47.664;9.162;2024-03-25T05:20:29;3.10;99.90
6948;DHT22;3513;47.664;9.162;2024-03-25T05:22:56;3.10;99.90
6948;DHT22;3513;47.664;9.162;2024-03-25T05:25:21;3.00;99.90
6948;DHT22;3513;47.664;9.162;2024-03-25T05:27:53;3.00;99.90
6948;DHT22;3513;47.664;9.162;2024-03-25T05:30:19;3.00;99.90
6948;DHT22;3513;47.664;9.162;2024-03-25T05:32:45;3.00;99.90
6948;DHT22;3513;47.664;9.162;2024-03-25T05:35:10;3.10;99.90
6948;DHT22;3513;47.664;9.162;2024-03-25T05:37:36;3.20;99.90
6948;DHT22;3513;47.664;9.162;2024-03-25T05:40:02;3.10;99.90
6948;DHT22;3513;47.664;9.162;2024-03-25T05:42:28;3.20;99.90
6948;DHT22;3513;47.664;9.162;2024-03-25T05:44:54;3.40;99.90
6948;DHT22;3513;47.664;9.162;2024-03-25T05:47:19;3.50;99.90
6948;DHT22;3513;47.664;9.162;2024-03-25T05:49:46;3.50;99.90
6948;DHT22;3513;47.664;9.162;2024-03-25T05:52:12;3.60;99.90
6948;DHT22;3513;47.664;9.162;2024-03-25T05:54:38;3.60;99.90
6948;DHT22;3513;47.664;9.162;2024-03-25T05:57:04;3.60;99.90
6948;DHT22;3513;47.664;9.162;2024-03-25T05:59:29;3.60;99.90
6948;DHT22;3513;47.664;9.162;2024-03-25T06:01:55;3.80;99.90
6948;DHT22;3513;47.664;9.162;2024-03-25T06:04:20;3.80;99.90
6948;DHT22;3513;47.664;9.162;2024-03-25T06:06:46;3.90;99.90
6948;DHT22;3513;47.664;9.162;2024-03-25T06:09:11;4.00;99.90
6948;DHT22;3513;47.664;9.162;2024-03-25T06:11:37;4.10;99.90
6948;DHT22;3513;47.664;9.162;2024-03-25T06:14:02;4.30;99.90
6948;DHT22;3513;47.664;9.162;2024-03-25T06:16:28;4.40;99.90
6948;DHT22;3513;47.664;9.162;2024-03-25T06:18:53;4.40;99.90
6948;DHT22;3513;47.664;9.162;2024-03-25T06:21:19;4.40;99.90
6948;DHT22;3513;47.664;9.162;2024-03-25T06:23:45;4.40;99.90
6948;DHT22;3513;47.664;9.162;2024-03-25T06:26:10;4.50;99.90
6948;DHT22;3513;47.664;9.162;2024-03-25T06:28:36;4.50;99.90
6948;DHT22;3513;47.664;9.162;2024-03-25T06:31:01;4.70;99.90
6948;DHT22;3513;47.664;9.162;2024-03-25T06:33:46;4.60;99.90
6948;DHT22;3513;47.664;9.162;2024-03-25T06:36:30;4.90;99.90
6948;DHT22;3513;47.664;9.162;2024-03-25T06:38:55;4.90;99.90
6948;DHT22;3513;47.664;9.162;2024-03-25T06:41:21;4.90;99.90
6948;DHT22;3513;47.664;9.162;2024-03-25T06:43:46;4.90;99.90
6948;DHT22;3513;47.664;9.162;2024-03-25T06:46:12;4.90;99.90
6948;DHT22;3513;47.664;9.162;2024-03-25T06:48:38;4.90;99.90
6948;DHT22;3513;47.664;9.162;2024-03-25T06:51:03;4.90;99.90
6948;DHT22;3513;47.664;9.162;2024-03-25T06:53:29;5.00;99.90
6948;DHT22;3513;47.664;9.162;2024-03-25T06:55:59;5.30;99.90
6948;DHT22;3513;47.664;9.162;2024-03-25T06:58:26;5.20;99.90
6948;DHT22;3513;47.664;9.162;2024-03-25T07:00:52;5.50;99.90
6948;DHT22;3513;47.664;9.162;2024-03-25T07:03:19;5.70;99.90
6948;DHT22;3513;47.664;9.162;2024-03-25T07:05:49;5.80;99.90
6948;DHT22;3513;47.664;9.162;2024-03-25T07:08:15;5.90;99.90
6948;DHT22;3513;47.664;9.162;2024-03-25T07:10:44;6.00;99.90
6948;DHT22;3513;47.664;9.162;2024-03-25T07:13:10;6.20;99.90
6948;DHT22;3513;47.664;9.162;2024-03-25T07:15:36;6.30;99.90
6948;DHT22;3513;47.664;9.162;2024-03-25T07:18:02;6.30;99.90
6948;DHT22;3513;47.664;9.162;2024-03-25T07:20:29;6.50;99.90
6948;DHT22;3513;47.664;9.162;2024-03-25T07:22:54;6.60;99.90
6948;DHT22;3513;47.664;9.162;2024-03-25T07:25:21;6.60;99.90
6948;DHT22;3513;47.664;9.162;2024-03-25T07:27:47;6.70;99.90
6948;DHT22;3513;47.664;9.162;2024-03-25T07:30:14;6.80;99.90
6948;DHT22;3513;47.664;9.162;2024-03-25T07:32:39;6.80;99.90
6948;DHT22;3513;47.664;9.162;2024-03-25T07:35:05;6.90;99.90
6948;DHT22;3513;47.664;9.162;2024-03-25T07:37:33;7.00;99.90
6948;DHT22;3513;47.664;9.162;2024-03-25T07:39:58;7.10;99.90
6948;DHT22;3513;47.664;9.162;2024-03-25T07:42:24;7.20;99.90
6948;DHT22;3513;47.664;9.162;2024-03-25T07:44:50;7.30;99.90
6948;DHT22;3513;47.664;9.162;2024-03-25T07:47:15;7.40;99.90
6948;DHT22;3513;47.664;9.162;2024-03-25T07:49:41;7.40;99.90
6948;DHT22;3513;47.664;9.162;2024-03-25T07:52:06;7.50;99.90
6948;DHT22;3513;47.664;9.162;2024-03-25T07:54:32;7.60;99.90
6948;DHT22;3513;47.664;9.162;2024-03-25T07:56:58;7.70;99.90
6948;DHT22;3513;47.664;9.162;2024-03-25T07:59:23;7.80;99.70
6948;DHT22;3513;47.664;9.162;2024-03-25T08:01:49;7.90;98.80
6948;DHT22;3513;47.664;9.162;2024-03-25T08:04:14;8.00;98.90
6948;DHT22;3513;47.664;9.162;2024-03-25T08:06:40;8.20;98.20
6948;DHT22;3513;47.664;9.162;2024-03-25T08:09:06;8.30;97.70
6948;DHT22;3513;47.664;9.162;2024-03-25T08:11:32;8.40;96.70
6948;DHT22;3513;47.664;9.162;2024-03-25T08:13:58;8.40;95.70
6948;DHT22;3513;47.664;9.162;2024-03-25T08:16:24;8.50;94.90
6948;DHT22;3513;47.664;9.162;2024-03-25T08:18:50;8.40;94.60
6948;DHT22;3513;47.664;9.162;2024-03-25T08:21:16;8.50;94.50
6948;DHT22;3513;47.664;9.162;2024-03-25T08:23:44;8.40;93.30
6948;DHT22;3513;47.664;9.162;2024-03-25T08:26:09;8.40;93.20
6948;DHT22;3513;47.664;9.162;2024-03-25T08:28:35;8.60;94.90
6948;DHT22;3513;47.664;9.162;2024-03-25T08:31:01;8.70;94.90
6948;DHT22;3513;47.664;9.162;2024-03-25T08:33:26;8.80;93.70
6948;DHT22;3513;47.664;9.162;2024-03-25T08:35:53;8.80;92.20
6948;DHT22;3513;47.664;9.162;2024-03-25T08:38:19;8.90;92.50
6948;DHT22;3513;47.664;9.162;2024-03-25T08:40:45;9.10;92.40
6948;DHT22;3513;47.664;9.162;2024-03-25T08:43:10;9.20;92.80
6948;DHT22;3513;47.664;9.162;2024-03-25T08:45:36;9.40;91.60
6948;DHT22;3513;47.664;9.162;2024-03-25T08:48:01;9.40;92.10
6948;DHT22;3513;47.664;9.162;2024-03-25T08:50:27;9.50;90.70
6948;DHT22;3513;47.664;9.162;2024-03-25T08:52:52;9.30;90.60
6948;DHT22;3513;47.664;9.162;2024-03-25T08:55:18;9.30;91.40
6948;DHT22;3513;47.664;9.162;2024-03-25T08:57:44;9.40;91.60
6948;DHT22;3513;47.664;9.162;2024-03-25T09:00:10;9.40;90.90
6948;DHT22;3513;47.664;9.162;2024-03-25T09:02:39;9.60;91.20
6948;DHT22;3513;47.664;9.162;2024-03-25T09:05:04;9.70;91.50
6948;DHT22;3513;47.664;9.162;2024-03-25T09:07:31;9.90;90.30
6948;DHT22;3513;47.664;9.162;2024-03-25T09:09:57;10.10;89.60
6948;DHT22;3513;47.664;9.162;2024-03-25T09:12:41;10.20;88.90
6948;DHT22;3513;47.664;9.162;2024-03-25T09:15:07;10.20;83.90
6948;DHT22;3513;47.664;9.162;2024-03-25T09:17:32;10.10;84.70
6948;DHT22;3513;47.664;9.162;2024-03-25T09:19:58;10.10;84.70
6948;DHT22;3513;47.664;9.162;2024-03-25T09:22:23;10.20;83.80
6948;DHT22;3513;47.664;9.162;2024-03-25T09:24:49;10.20;85.50
6948;DHT22;3513;47.664;9.162;2024-03-25T09:27:15;10.40;83.30
6948;DHT22;3513;47.664;9.162;2024-03-25T09:29:41;10.40;84.50
6948;DHT22;3513;47.664;9.162;2024-03-25T09:32:07;10.40;84.20
6948;DHT22;3513;47.664;9.162;2024-03-25T09:34:33;10.50;81.10
6948;DHT22;3513;47.664;9.162;2024-03-25T09:36:59;10.30;79.30
6948;DHT22;3513;47.664;9.162;2024-03-25T09:39:24;10.20;78.80
6948;DHT22;3513;47.664;9.162;2024-03-25T09:41:51;10.10;79.40
6948;DHT22;3513;47.664;9.162;2024-03-25T09:44:22;10.10;80.40
6948;DHT22;3513;47.664;9.162;2024-03-25T09:46:50;10.10;81.30
6948;DHT22;3513;47.664;9.162;2024-03-25T09:49:16;10.20;82.10
6948;DHT22;3513;47.664;9.162;2024-03-25T09:51:42;10.30;81.70
6948;DHT22;3513;47.664;9.162;2024-03-25T09:54:08;10.20;82.30
6948;DHT22;3513;47.664;9.162;2024-03-25T09:56:35;10.20;83.20
6948;DHT22;3513;47.664;9.162;2024-03-25T09:59:02;10.30;83.90
6948;DHT22;3513;47.664;9.162;2024-03-25T10:01:28;10.30;84.60
6948;DHT22;3513;47.664;9.162;2024-03-25T10:03:54;10.30;84.00
6948;DHT22;3513;47.664;9.162;2024-03-25T10:06:19;10.40;82.30
6948;DHT22;3513;47.664;9.162;2024-03-25T10:08:45;10.30;79.40
6948;DHT22;3513;47.664;9.162;2024-03-25T10:11:11;10.30;81.50
6948;DHT22;3513;47.664;9.162;2024-03-25T10:13:37;10.20;80.50
6948;DHT22;3513;47.664;9.162;2024-03-25T10:16:03;10.30;81.60
6948;DHT22;3513;47.664;9.162;2024-03-25T10:18:29;10.20;81.30
6948;DHT22;3513;47.664;9.162;2024-03-25T10:20:54;10.30;81.10
6948;DHT22;3513;47.664;9.162;2024-03-25T10:23:25;10.40;82.10
6948;DHT22;3513;47.664;9.162;2024-03-25T10:25:54;10.30;77.80
6948;DHT22;3513;47.664;9.162;2024-03-25T10:28:20;10.60;82.20
6948;DHT22;3513;47.664;9.162;2024-03-25T10:30:46;10.60;82.00
6948;DHT22;3513;47.664;9.162;2024-03-25T10:33:12;10.60;78.60
6948;DHT22;3513;47.664;9.162;2024-03-25T10:35:40;10.60;80.80
6948;DHT22;3513;47.664;9.162;2024-03-25T10:38:09;10.60;80.10
6948;DHT22;3513;47.664;9.162;2024-03-25T10:40:39;10.70;81.10
6948;DHT22;3513;47.664;9.162;2024-03-25T10:43:06;10.80;79.80
6948;DHT22;3513;47.664;9.162;2024-03-25T10:45:35;10.80;78.90
6948;DHT22;3513;47.664;9.162;2024-03-25T10:48:36;10.90;78.00
6948;DHT22;3513;47.664;9.162;2024-03-25T10:51:03;11.00;79.10
6948;DHT22;3513;47.664;9.162;2024-03-25T10:53:30;10.90;85.20
6948;DHT22;3513;47.664;9.162;2024-03-25T10:55:57;10.90;86.10
6948;DHT22;3513;47.664;9.162;2024-03-25T10:58:23;11.00;79.30
6948;DHT22;3513;47.664;9.162;2024-03-25T11:00:51;11.10;78.50
6948;DHT22;3513;47.664;9.162;2024-03-25T11:03:17;11.10;78.30
6948;DHT22;3513;47.664;9.162;2024-03-25T11:05:43;11.00;77.90
6948;DHT22;3513;47.664;9.162;2024-03-25T11:08:12;11.10;79.20
6948;DHT22;3513;47.664;9.162;2024-03-25T11:10:43;11.10;77.70
6948;DHT22;3513;47.664;9.162;2024-03-25T11:13:12;11.10;76.60
6948;DHT22;3513;47.664;9.162;2024-03-25T11:15:42;11.10;74.80
6948;DHT22;3513;47.664;9.162;2024-03-25T11:18:21;11.10;77.30
6948;DHT22;3513;47.664;9.162;2024-03-25T11:20:59;11.10;74.10
6948;DHT22;3513;47.664;9.162;2024-03-25T11:23:25;11.20;76.40
6948;DHT22;3513;47.664;9.162;2024-03-25T11:25:55;11.20;74.30
6948;DHT22;3513;47.664;9.162;2024-03-25T11:28:27;11.10;72.30
6948;DHT22;3513;47.664;9.162;2024-03-25T11:30:53;11.20;72.30
6948;DHT22;3513;47.664;9.162;2024-03-25T11:33:18;11.10;69.40
6948;DHT22;3513;47.664;9.162;2024-03-25T11:35:48;11.10;66.00
6948;DHT22;3513;47.664;9.162;2024-03-25T11:38:14;11.00;65.30
6948;DHT22;3513;47.664;9.162;2024-03-25T11:40:43;11.10;65.80
6948;DHT22;3513;47.664;9.162;2024-03-25T11:43:09;11.20;68.20
6948;DHT22;3513;47.664;9.162;2024-03-25T11:45:34;11.20;67.40
6948;DHT22;3513;47.664;9.162;2024-03-25T11:48:00;11.40;67.20
6948;DHT22;3513;47.664;9.162;2024-03-25T11:50:25;11.60;67.50
6948;DHT22;3513;47.664;9.162;2024-03-25T11:52:51;11.70;66.70
6948;DHT22;3513;47.664;9.162;2024-03-25T11:55:17;11.70;62.40
6948;DHT22;3513;47.664;9.162;2024-03-25T11:57:43;11.70;64.10
6948;DHT22;3513;47.664;9.162;2024-03-25T12:00:09;11.70;63.00
6948;DHT22;3513;47.664;9.162;2024-03-25T12:02:44;11.80;63.90
6948;DHT22;3513;47.664;9.162;2024-03-25T12:05:11;12.00;59.90
6948;DHT22;3513;47.664;9.162;2024-03-25T12:07:36;12.10;58.90
6948;DHT22;3513;47.664;9.162;2024-03-25T12:10:02;12.20;57.70
6948;DHT22;3513;47.664;9.162;2024-03-25T12:12:47;12.10;57.60
6948;DHT22;3513;47.664;9.162;2024-03-25T12:15:13;12.30;56.20
6948;DHT22;3513;47.664;9.162;2024-03-25T12:17:39;12.30;56.30
6948;DHT22;3513;47.664;9.162;2024-03-25T12:20:06;12.40;58.30
6948;DHT22;3513;47.664;9.162;2024-03-25T12:22:39;12.50;56.70
6948;DHT22;3513;47.664;9.162;2024-03-25T12:25:06;12.60;55.60
6948;DHT22;3513;47.664;9.162;2024-03-25T12:27:33;12.80;55.20
6948;DHT22;3513;47.664;9.162;2024-03-25T12:30:02;12.80;54.90
6948;DHT22;3513;47.664;9.162;2024-03-25T12:32:46;12.70;55.30
6948;DHT22;3513;47.664;9.162;2024-03-25T12:35:15;12.70;56.50
6948;DHT22;3513;47.664;9.162;2024-03-25T12:37:43;12.80;57.40
6948;DHT22;3513;47.664;9.162;2024-03-25T12:40:14;13.00;58.10
6948;DHT22;3513;47.664;9.162;2024-03-25T12:42:52;13.10;56.70
6948;DHT22;3513;47.664;9.162;2024-03-25T12:45:19;13.30;57.70
6948;DHT22;3513;47.664;9.162;2024-03-25T12:47:44;13.40;57.30
6948;DHT22;3513;47.664;9.162;2024-03-25T12:50:10;13.50;57.00
6948;DHT22;3513;47.664;9.162;2024-03-25T12:52:35;13.80;56.90
6948;DHT22;3513;47.664;9.162;2024-03-25T12:55:02;14.00;55.10
6948;DHT22;3513;47.664;9.162;2024-03-25T12:57:29;14.10;54.60
6948;DHT22;3513;47.664;9.162;2024-03-25T12:59:54;14.30;52.90
6948;DHT22;3513;47.664;9.162;2024-03-25T13:02:20;14.60;51.90
6948;DHT22;3513;47.664;9.162;2024-03-25T13:04:46;14.70;51.10
6948;DHT22;3513;47.664;9.162;2024-03-25T13:07:11;14.90;51.40
6948;DHT22;3513;47.664;9.162;2024-03-25T13:09:37;15.30;50.20
6948;DHT22;3513;47.664;9.162;2024-03-25T13:12:03;15.50;49.70
6948;DHT22;3513;47.664;9.162;2024-03-25T13:14:29;15.60;48.80
6948;DHT22;3513;47.664;9.162;2024-03-25T13:16:55;15.90;49.20
6948;DHT22;3513;47.664;9.162;2024-03-25T13:19:21;16.20;46.80
6948;DHT22;3513;47.664;9.162;2024-03-25T13:21:46;16.50;45.60
6948;DHT22;3513;47.664;9.162;2024-03-25T13:24:13;16.80;46.30
6948;DHT22;3513;47.664;9.162;2024-03-25T13:26:39;16.90;45.30
6948;DHT22;3513;47.664;9.162;2024-03-25T13:29:04;17.10;43.60
6948;DHT22;3513;47.664;9.162;2024-03-25T13:31:30;17.00;43.80
6948;DHT22;3513;47.664;9.162;2024-03-25T13:33:56;17.20;43.20
6948;DHT22;3513;47.664;9.162;2024-03-25T13:36:21;17.30;44.10
6948;DHT22;3513;47.664;9.162;2024-03-25T13:38:47;17.40;43.00
6948;DHT22;3513;47.664;9.162;2024-03-25T13:41:12;17.50;43.20
6948;DHT22;3513;47.664;9.162;2024-03-25T13:43:44;17.70;41.40
6948;DHT22;3513;47.664;9.162;2024-03-25T13:46:10;18.00;42.50
6948;DHT22;3513;47.664;9.162;2024-03-25T13:48:37;18.20;42.50
6948;DHT22;3513;47.664;9.162;2024-03-25T13:51:03;18.50;41.90
6948;DHT22;3513;47.664;9.162;2024-03-25T13:53:29;18.80;40.40
6948;DHT22;3513;47.664;9.162;2024-03-25T13:55:54;19.10;40.80
6948;DHT22;3513;47.664;9.162;2024-03-25T13:58:20;19.40;39.60
6948;DHT22;3513;47.664;9.162;2024-03-25T14:00:45;19.80;39.90
6948;DHT22;3513;47.664;9.162;2024-03-25T14:03:11;20.00;39.90
6948;DHT22;3513;47.664;9.162;2024-03-25T14:05:36;20.40;37.70
6948;DHT22;3513;47.664;9.162;2024-03-25T14:08:02;20.60;36.80
6948;DHT22;3513;47.664;9.162;2024-03-25T14:10:28;20.80;38.00
6948;DHT22;3513;47.664;9.162;2024-03-25T14:12:55;20.90;37.00
6948;DHT22;3513;47.664;9.162;2024-03-25T14:15:21;21.20;37.20
6948;DHT22;3513;47.664;9.162;2024-03-25T14:17:46;21.60;35.60
6948;DHT22;3513;47.664;9.162;2024-03-25T14:20:12;21.90;34.50
6948;DHT22;3513;47.664;9.162;2024-03-25T14:22:37;22.10;34.10
6948;DHT22;3513;47.664;9.162;2024-03-25T14:25:03;22.50;34.80
6948;DHT22;3513;47.664;9.162;2024-03-25T14:27:29;23.00;35.90
6948;DHT22;3513;47.664;9.162;2024-03-25T14:29:54;23.30;35.70
6948;DHT22;3513;47.664;9.162;2024-03-25T14:32:21;23.60;34.00
6948;DHT22;3513;47.664;9.162;2024-03-25T14:34:47;23.90;32.50
6948;DHT22;3513;47.664;9.162;2024-03-25T14:37:13;24.10;33.30
6948;DHT22;3513;47.664;9.162;2024-03-25T14:39:39;24.30;31.50
6948;DHT22;3513;47.664;9.162;2024-03-25T14:42:07;24.60;28.00
6948;DHT22;3513;47.664;9.162;2024-03-25T14:44:32;25.00;26.90
6948;DHT22;3513;47.664;9.162;2024-03-25T14:46:58;25.30;27.10
6948;DHT22;3513;47.664;9.162;2024-03-25T14:49:26;25.40;26.30
6948;DHT22;3513;47.664;9.162;2024-03-25T14:51:52;25.80;26.70
6948;DHT22;3513;47.664;9.162;2024-03-25T14:54:18;25.90;25.90
6948;DHT22;3513;47.664;9.162;2024-03-25T14:56:44;26.10;26.70
6948;DHT22;3513;47.664;9.162;2024-03-25T14:59:10;26.10;27.60
6948;DHT22;3513;47.664;9.162;2024-03-25T15:01:35;26.20;28.40
6948;DHT22;3513;47.664;9.162;2024-03-25T15:04:02;26.40;27.00
6948;DHT22;3513;47.664;9.162;2024-03-25T15:06:28;26.70;26.90
6948;DHT22;3513;47.664;9.162;2024-03-25T15:08:53;27.00;28.70
6948;DHT22;3513;47.664;9.162;2024-03-25T15:11:20;27.30;27.60
6948;DHT22;3513;47.664;9.162;2024-03-25T15:13:45;27.40;27.60
6948;DHT22;3513;47.664;9.162;2024-03-25T15:16:11;27.60;27.20
6948;DHT22;3513;47.664;9.162;2024-03-25T15:18:37;27.90;27.70
6948;DHT22;3513;47.664;9.162;2024-03-25T15:21:04;27.80;28.30
6948;DHT22;3513;47.664;9.162;2024-03-25T15:23:31;28.00;26.00
6948;DHT22;3513;47.664;9.162;2024-03-25T15:25:57;28.10;24.90
6948;DHT22;3513;47.664;9.162;2024-03-25T15:28:23;28.50;23.90
6948;DHT22;3513;47.664;9.162;2024-03-25T15:30:50;28.80;22.90
6948;DHT22;3513;47.664;9.162;2024-03-25T15:33:16;29.00;22.60
6948;DHT22;3513;47.664;9.162;2024-03-25T15:35:43;29.30;23.10
6948;DHT22;3513;47.664;9.162;2024-03-25T15:38:08;29.50;22.40
6948;DHT22;3513;47.664;9.162;2024-03-25T15:40:35;29.60;23.00
6948;DHT22;3513;47.664;9.162;2024-03-25T15:43:01;29.90;22.40
6948;DHT22;3513;47.664;9.162;2024-03-25T15:45:28;30.30;22.90
6948;DHT22;3513;47.664;9.162;2024-03-25T15:47:56;30.50;22.90
6948;DHT22;3513;47.664;9.162;2024-03-25T15:50:22;30.80;23.70
6948;DHT22;3513;47.664;9.162;2024-03-25T15:52:49;31.20;24.60
6948;DHT22;3513;47.664;9.162;2024-03-25T15:55:14;31.30;28.00
6948;DHT22;3513;47.664;9.162;2024-03-25T15:57:40;31.30;21.80
6948;DHT22;3513;47.664;9.162;2024-03-25T16:00:07;31.40;21.10
6948;DHT22;3513;47.664;9.162;2024-03-25T16:02:36;31.40;21.40
6948;DHT22;3513;47.664;9.162;2024-03-25T16:05:02;30.80;20.80
6948;DHT22;3513;47.664;9.162;2024-03-25T16:07:29;31.10;21.50